createdAt,value
2023-02-02T00:01:41.536Z,32.58
2023-02-02T00:04:09.113Z,37.17
2023-02-02T00:06:35.456Z,30.80
2023-02-02T00:09:02.799Z,31.25
2023-02-02T00:11:29.125Z,42.45
2023-02-02T00:13:55.417Z,31.92
2023-02-02T00:16:34.677Z,32.22
2023-02-02T00:19:02.096Z,24.75
2023-02-02T00:21:28.599Z,36.85
2023-02-02T00:23:54.913Z,37.60
2023-02-02T00:26:21.658Z,43.95
2023-02-02T00:28:48.103Z,39.10
2023-02-02T00:31:14.415Z,41.30
2023-02-02T00:33:44.901Z,29.20
2023-02-02T00:36:11.154Z,38.53
2023-02-02T00:38:38.028Z,37.25
2023-02-02T00:41:04.980Z,59.45
2023-02-02T00:43:31.442Z,26.60
2023-02-02T00:45:58.639Z,34.80
2023-02-02T00:48:25.837Z,30.30
2023-02-02T00:50:52.580Z,30.13
2023-02-02T00:53:18.868Z,33.00
2023-02-02T00:55:46.848Z,34.25
2023-02-02T00:58:13.150Z,24.27
2023-02-02T01:00:39.782Z,25.63
2023-02-02T01:03:06.974Z,32.38
2023-02-02T01:05:34.149Z,42.58
2023-02-02T01:08:00.696Z,27.23
2023-02-02T01:10:28.294Z,31.17
2023-02-02T01:12:54.621Z,32.22
2023-02-02T01:15:20.902Z,28.95
2023-02-02T01:17:48.923Z,27.90
2023-02-02T01:20:16.859Z,41.88
2023-02-02T01:22:43.224Z,28.45
2023-02-02T01:25:09.520Z,35.28
2023-02-02T01:27:35.791Z,34.97
2023-02-02T01:30:02.093Z,30.45
2023-02-02T01:32:28.586Z,26.48
2023-02-02T01:34:54.939Z,27.73
2023-02-02T01:37:22.178Z,27.25
2023-02-02T01:39:48.918Z,43.17
2023-02-02T01:42:19.680Z,28.58
2023-02-02T01:45:04.212Z,28.83
2023-02-02T01:47:32.922Z,51.53
2023-02-02T01:50:00.668Z,38.28
2023-02-02T01:52:28.241Z,31.38
2023-02-02T01:54:56.601Z,46.45
2023-02-02T01:57:31.315Z,39.28
2023-02-02T01:59:59.191Z,31.13
2023-02-02T02:02:25.961Z,26.20
2023-02-02T02:04:52.568Z,26.70
2023-02-02T02:07:19.036Z,16.55
2023-02-02T02:09:47.005Z,17.80
2023-02-02T02:12:15.307Z,25.10
2023-02-02T02:15:01.994Z,31.45
2023-02-02T02:17:35.260Z,20.10
2023-02-02T02:20:39.772Z,27.38
2023-02-02T02:23:44.480Z,14.23
2023-02-02T02:26:35.586Z,13.93
2023-02-02T02:29:11.782Z,23.10
2023-02-02T02:31:56.830Z,24.63
2023-02-02T02:34:26.775Z,37.58
2023-02-02T02:37:00.874Z,23.58
2023-02-02T02:39:32.378Z,30.40
2023-02-02T02:42:00.947Z,32.00
2023-02-02T02:44:28.059Z,32.10
2023-02-02T02:46:54.746Z,19.05
2023-02-02T02:49:21.415Z,31.75
2023-02-02T02:51:48.919Z,29.92
2023-02-02T02:54:22.581Z,21.48
2023-02-02T02:56:48.972Z,30.73
2023-02-02T02:59:30.541Z,26.40
2023-02-02T03:01:59.922Z,25.55
2023-02-02T03:04:49.502Z,35.67
2023-02-02T03:07:23.740Z,22.85
2023-02-02T03:09:51.665Z,33.97
2023-02-02T03:12:18.036Z,39.20
2023-02-02T03:14:44.468Z,25.00
2023-02-02T03:17:10.904Z,26.05
2023-02-02T03:19:37.328Z,14.35
2023-02-02T03:22:03.608Z,24.35
2023-02-02T03:24:30.193Z,29.23
2023-02-02T03:26:56.439Z,34.42
2023-02-02T03:29:22.794Z,14.45
2023-02-02T03:31:49.425Z,19.00
2023-02-02T03:34:15.723Z,19.05
2023-02-02T03:36:42.045Z,17.85
2023-02-02T03:39:08.338Z,32.63
2023-02-02T03:41:34.662Z,15.63
2023-02-02T03:44:00.948Z,24.88
2023-02-02T03:46:27.759Z,28.38
2023-02-02T03:48:54.063Z,17.42
2023-02-02T03:51:20.342Z,20.88
2023-02-02T03:53:49.691Z,30.55
2023-02-02T03:56:16.404Z,17.75
2023-02-02T03:58:42.708Z,16.98
2023-02-02T04:01:11.296Z,27.88
2023-02-02T04:03:37.582Z,15.80
2023-02-02T04:06:04.004Z,23.73
2023-02-02T04:08:31.173Z,14.98
2023-02-02T04:10:57.478Z,25.15
2023-02-02T04:13:23.782Z,11.38
2023-02-02T04:15:56.539Z,17.48
2023-02-02T04:18:22.802Z,16.38
2023-02-02T04:20:49.103Z,21.83
2023-02-02T04:23:15.414Z,17.58
2023-02-02T04:25:48.604Z,28.25
2023-02-02T04:28:14.881Z,24.70
2023-02-02T04:30:41.568Z,17.77
2023-02-02T04:33:07.881Z,16.52
2023-02-02T04:35:34.162Z,13.00
2023-02-02T04:38:00.478Z,31.98
2023-02-02T04:40:26.805Z,17.02
2023-02-02T04:42:53.101Z,28.70
2023-02-02T04:45:19.392Z,18.08
2023-02-02T04:47:45.634Z,23.02
2023-02-02T04:50:12.200Z,17.00
2023-02-02T04:52:38.630Z,31.55
2023-02-02T04:55:05.021Z,18.55
2023-02-02T04:57:31.293Z,25.90
2023-02-02T04:59:57.564Z,30.33
2023-02-02T05:02:23.814Z,34.70
2023-02-02T05:04:50.228Z,20.35
2023-02-02T05:07:16.622Z,21.23
2023-02-02T05:09:42.891Z,23.90
2023-02-02T05:12:09.159Z,23.55
2023-02-02T05:14:35.448Z,20.35
2023-02-02T05:17:01.839Z,26.75
2023-02-02T05:19:28.164Z,29.30
2023-02-02T05:21:54.660Z,37.75
2023-02-02T05:24:20.963Z,25.55
2023-02-02T05:26:47.423Z,21.30
2023-02-02T05:29:13.826Z,24.30
2023-02-02T05:31:40.157Z,16.73
2023-02-02T05:34:06.861Z,17.13
2023-02-02T05:36:33.258Z,11.70
2023-02-02T05:39:00.331Z,20.60
2023-02-02T05:41:26.593Z,17.77
2023-02-02T05:43:52.855Z,26.17
2023-02-02T05:46:19.370Z,22.98
2023-02-02T05:48:45.723Z,30.63
2023-02-02T05:51:41.547Z,21.98
2023-02-02T05:54:07.785Z,23.13
2023-02-02T05:56:34.050Z,28.40
2023-02-02T05:59:00.438Z,38.08
2023-02-02T06:01:26.886Z,27.17
2023-02-02T06:03:53.311Z,32.70
2023-02-02T06:06:19.768Z,31.92
2023-02-02T06:08:46.145Z,29.92
2023-02-02T06:11:13.107Z,29.45
2023-02-02T06:13:39.693Z,25.80
2023-02-02T06:16:06.391Z,43.20
2023-02-02T06:18:35.157Z,38.58
2023-02-02T06:21:01.940Z,36.90
2023-02-02T06:23:28.543Z,33.28
2023-02-02T06:25:54.827Z,34.65
2023-02-02T06:28:21.120Z,29.27
2023-02-02T06:30:47.536Z,44.47
2023-02-02T06:33:13.909Z,40.40
2023-02-02T06:35:40.231Z,27.60
2023-02-02T06:38:06.611Z,33.60
2023-02-02T06:40:32.942Z,39.20
2023-02-02T06:43:00.382Z,34.78
2023-02-02T06:45:27.571Z,33.75
2023-02-02T06:47:54.471Z,32.47
2023-02-02T06:50:20.727Z,42.25
2023-02-02T06:52:50.377Z,22.95
2023-02-02T06:55:16.840Z,39.40
2023-02-02T06:57:43.118Z,29.13
2023-02-02T07:00:09.833Z,43.85
2023-02-02T07:02:36.164Z,30.98
2023-02-02T07:05:02.698Z,32.38
2023-02-02T07:07:32.944Z,22.08
2023-02-02T07:09:59.215Z,18.58
2023-02-02T07:12:26.751Z,20.05
2023-02-02T07:14:53.632Z,24.77
2023-02-02T07:17:19.915Z,21.98
2023-02-02T07:19:46.194Z,16.58
2023-02-02T07:22:12.473Z,16.85
2023-02-02T07:24:38.711Z,9.50
2023-02-02T07:27:05.051Z,12.52
2023-02-02T07:29:31.394Z,19.33
2023-02-02T07:31:57.787Z,25.88
2023-02-02T07:34:24.415Z,23.00
2023-02-02T07:36:50.749Z,37.33
2023-02-02T07:39:17.060Z,32.42
2023-02-02T07:41:43.825Z,48.03
2023-02-02T07:44:22.500Z,31.45
2023-02-02T07:46:49.335Z,22.58
2023-02-02T07:49:16.562Z,29.60
2023-02-02T07:51:47.560Z,27.02
2023-02-02T07:54:14.112Z,30.67
2023-02-02T07:56:40.421Z,28.70
2023-02-02T07:59:06.767Z,33.38
2023-02-02T08:01:33.281Z,26.33
2023-02-02T08:04:03.806Z,23.15
2023-02-02T08:06:32.026Z,34.55
2023-02-02T08:08:58.974Z,32.72
2023-02-02T08:11:26.180Z,22.92
2023-02-02T08:13:53.809Z,25.17
2023-02-02T08:16:20.659Z,35.20
2023-02-02T08:18:47.346Z,29.40
2023-02-02T08:21:13.989Z,29.85
2023-02-02T08:23:41.157Z,38.42
2023-02-02T08:26:12.035Z,20.10
2023-02-02T08:28:39.204Z,21.67
2023-02-02T08:31:10.198Z,23.60
2023-02-02T08:33:36.771Z,36.83
2023-02-02T08:36:03.892Z,24.38
2023-02-02T08:38:30.289Z,29.30
2023-02-02T08:40:57.377Z,25.15
2023-02-02T08:43:23.654Z,22.75
2023-02-02T08:46:01.459Z,25.52
2023-02-02T08:48:36.907Z,20.55
2023-02-02T08:51:04.257Z,25.80
2023-02-02T08:53:30.795Z,32.58
2023-02-02T08:56:00.998Z,12.05
2023-02-02T08:58:27.816Z,21.60
2023-02-02T09:00:54.293Z,24.08
2023-02-02T09:03:20.887Z,16.98
2023-02-02T09:05:47.143Z,24.48
2023-02-02T09:08:13.454Z,17.55
2023-02-02T09:10:39.764Z,27.90
2023-02-02T09:13:06.030Z,21.45
2023-02-02T09:15:32.467Z,31.67
2023-02-02T09:18:02.252Z,21.90
2023-02-02T09:20:28.645Z,14.43
2023-02-02T09:22:55.930Z,24.50
2023-02-02T09:25:22.440Z,25.20
2023-02-02T09:27:48.755Z,29.88
2023-02-02T09:30:15.175Z,20.45
2023-02-02T09:32:41.493Z,17.38
2023-02-02T09:35:07.962Z,18.05
2023-02-02T09:37:34.726Z,12.65
2023-02-02T09:40:01.131Z,16.25
2023-02-02T09:42:29.369Z,18.95
2023-02-02T09:44:58.143Z,17.90
2023-02-02T09:47:27.451Z,28.10
2023-02-02T09:49:56.543Z,24.30
2023-02-02T09:52:29.922Z,18.92
2023-02-02T09:54:59.232Z,19.70
2023-02-02T09:57:28.758Z,15.50
2023-02-02T09:59:55.545Z,26.02
2023-02-02T10:02:23.973Z,20.25
2023-02-02T10:04:52.131Z,20.75
2023-02-02T10:07:26.547Z,22.52
2023-02-02T10:09:59.459Z,17.92
2023-02-02T10:12:28.999Z,26.70
2023-02-02T10:15:13.044Z,16.33
2023-02-02T10:17:48.569Z,11.73
2023-02-02T10:22:41.723Z,14.30
2023-02-02T10:25:11.528Z,14.43
2023-02-02T10:27:38.775Z,22.13
2023-02-02T10:30:25.667Z,8.45
2023-02-02T10:33:01.897Z,15.48
2023-02-02T10:35:37.135Z,13.68
2023-02-02T10:38:42.068Z,21.25
2023-02-02T10:41:28.739Z,16.98
2023-02-02T10:44:01.807Z,14.70
2023-02-02T10:46:37.663Z,18.10
2023-02-02T10:49:06.952Z,14.02
2023-02-02T10:51:33.263Z,17.20
2023-02-02T10:54:00.286Z,19.48
2023-02-02T10:56:31.349Z,17.90
2023-02-02T10:59:13.139Z,13.63
2023-02-02T11:01:39.474Z,13.57
2023-02-02T11:04:24.920Z,15.57
2023-02-02T11:06:51.396Z,17.45
2023-02-02T11:09:38.340Z,13.23
2023-02-02T11:12:18.873Z,12.35
2023-02-02T11:14:59.852Z,14.48
2023-02-02T11:17:26.322Z,18.00
2023-02-02T11:19:52.692Z,4.53
2023-02-02T11:22:45.048Z,15.38
2023-02-02T11:25:28.490Z,12.02
2023-02-02T11:27:54.875Z,15.00
2023-02-02T11:30:25.362Z,16.42
2023-02-02T11:32:52.453Z,14.25
2023-02-02T11:35:19.384Z,12.70
2023-02-02T11:38:12.069Z,14.32
2023-02-02T11:40:52.901Z,12.00
2023-02-02T11:43:30.192Z,17.23
2023-02-02T11:46:00.256Z,12.20
2023-02-02T11:48:33.270Z,17.17
2023-02-02T11:51:01.157Z,10.02
2023-02-02T11:53:29.155Z,12.15
2023-02-02T11:55:57.148Z,20.70
2023-02-02T11:58:27.323Z,14.75
2023-02-02T12:00:58.053Z,11.30
2023-02-02T12:03:32.247Z,11.30
2023-02-02T12:05:58.987Z,13.07
2023-02-02T12:08:25.601Z,15.38
2023-02-02T12:11:02.930Z,25.42
2023-02-02T12:13:47.853Z,19.60
2023-02-02T12:16:33.038Z,6.85
2023-02-02T12:19:17.703Z,15.13
2023-02-02T12:22:02.808Z,15.13
2023-02-02T12:24:31.505Z,6.70
2023-02-02T12:27:12.815Z,8.98
2023-02-02T12:29:46.804Z,10.27
2023-02-02T12:32:32.349Z,9.05
2023-02-02T12:35:09.004Z,12.07
2023-02-02T12:37:45.690Z,28.70
2023-02-02T12:40:14.784Z,9.65
2023-02-02T12:42:58.205Z,21.30
2023-02-02T12:45:40.777Z,10.27
2023-02-02T12:48:29.939Z,6.95
2023-02-02T12:51:20.886Z,11.85
2023-02-02T12:54:34.623Z,12.57
2023-02-02T12:57:02.220Z,10.18
2023-02-02T12:59:39.885Z,26.55
2023-02-02T13:02:21.550Z,8.85
2023-02-02T13:05:05.461Z,14.95
2023-02-02T13:07:46.205Z,5.97
2023-02-02T13:10:26.820Z,11.20
2023-02-02T13:13:08.318Z,10.88
2023-02-02T13:15:42.752Z,12.73
2023-02-02T13:18:13.575Z,20.63
2023-02-02T13:20:43.004Z,9.32
2023-02-02T13:23:13.469Z,8.52
2023-02-02T13:25:46.602Z,14.55
2023-02-02T13:28:18.377Z,5.47
2023-02-02T13:30:46.977Z,4.97
2023-02-02T13:33:15.450Z,12.80
2023-02-02T13:35:59.831Z,8.48
2023-02-02T13:38:27.303Z,7.25
2023-02-02T13:40:55.401Z,9.75
2023-02-02T13:43:28.989Z,7.97
2023-02-02T13:46:00.881Z,9.88
2023-02-02T13:48:32.875Z,10.43
2023-02-02T13:51:17.988Z,8.25
2023-02-02T13:53:49.587Z,8.30
2023-02-02T13:56:26.904Z,6.32
2023-02-02T13:59:04.964Z,4.70
2023-02-02T14:01:32.085Z,1.98
2023-02-02T14:04:00.311Z,10.40
2023-02-02T14:06:27.556Z,6.55
2023-02-02T14:08:58.717Z,4.95
2023-02-02T14:11:30.293Z,5.57
2023-02-02T14:14:24.937Z,18.35
2023-02-02T14:16:51.980Z,18.10
2023-02-02T14:19:40.779Z,12.43
2023-02-02T14:22:14.288Z,7.25
2023-02-02T14:24:43.308Z,10.00
2023-02-02T14:27:09.892Z,6.50
2023-02-02T14:29:40.562Z,8.88
2023-02-02T14:32:06.853Z,8.68
2023-02-02T14:34:34.318Z,6.30
2023-02-02T14:37:03.815Z,9.23
2023-02-02T14:39:30.218Z,10.75
2023-02-02T14:42:27.327Z,8.20
2023-02-02T14:45:12.627Z,9.65
2023-02-02T14:47:45.151Z,8.25
2023-02-02T14:50:36.169Z,8.95
2023-02-02T14:53:05.502Z,17.17
2023-02-02T14:55:32.118Z,8.68
2023-02-02T14:58:00.550Z,8.73
2023-02-02T15:00:29.791Z,9.07
2023-02-02T15:02:56.264Z,14.10
2023-02-02T15:05:28.795Z,10.35
2023-02-02T15:08:05.617Z,9.95
2023-02-02T15:10:57.275Z,10.15
2023-02-02T15:13:25.259Z,6.18
2023-02-02T15:15:59.128Z,5.43
2023-02-02T15:18:28.305Z,7.28
2023-02-02T15:20:56.854Z,17.33
2023-02-02T15:23:31.328Z,8.35
2023-02-02T15:26:03.419Z,9.20
2023-02-02T15:28:30.012Z,10.40
2023-02-02T15:31:02.415Z,7.97
2023-02-02T15:33:40.049Z,7.25
2023-02-02T15:36:10.340Z,11.35
2023-02-02T15:38:39.741Z,7.53
2023-02-02T15:41:26.382Z,9.48
2023-02-02T15:43:53.229Z,16.98
2023-02-02T15:46:27.659Z,9.00
2023-02-02T15:49:18.182Z,7.13
2023-02-02T15:51:55.011Z,6.93
2023-02-02T15:54:23.182Z,10.90
2023-02-02T15:56:49.839Z,5.78
2023-02-02T15:59:20.824Z,6.15
2023-02-02T16:01:48.473Z,6.30
2023-02-02T16:04:17.514Z,6.35
2023-02-02T16:06:44.426Z,13.30
2023-02-02T16:09:24.450Z,5.88
2023-02-02T16:11:51.572Z,10.02
2023-02-02T16:14:18.030Z,10.95
2023-02-02T16:16:47.236Z,11.60
2023-02-02T16:19:14.316Z,5.50
2023-02-02T16:21:44.023Z,12.45
2023-02-02T16:24:14.962Z,12.80
2023-02-02T16:26:41.348Z,11.45
2023-02-02T16:29:10.903Z,10.98
2023-02-02T16:31:37.388Z,11.48
2023-02-02T16:34:04.769Z,18.77
2023-02-02T16:36:31.243Z,6.20
2023-02-02T16:38:58.239Z,7.43
2023-02-02T16:41:27.587Z,9.70
2023-02-02T16:43:54.343Z,14.07
2023-02-02T16:46:39.897Z,12.40
2023-02-02T16:49:13.337Z,18.60
2023-02-02T16:51:39.899Z,17.42
2023-02-02T16:54:06.126Z,16.85
2023-02-02T16:56:40.231Z,17.15
2023-02-02T16:59:16.071Z,23.45
2023-02-02T17:01:44.045Z,21.58
2023-02-02T17:04:21.572Z,14.90
2023-02-02T17:06:52.952Z,18.20
2023-02-02T17:09:37.230Z,11.70
2023-02-02T17:12:09.294Z,12.35
2023-02-02T17:14:49.124Z,11.95
2023-02-02T17:17:15.400Z,11.98
2023-02-02T17:19:41.755Z,23.58
2023-02-02T17:22:08.547Z,8.52
2023-02-02T17:24:34.903Z,10.55
2023-02-02T17:27:01.659Z,13.05
2023-02-02T17:29:28.160Z,7.30
2023-02-02T17:31:54.576Z,8.68
2023-02-02T17:34:21.131Z,10.85
2023-02-02T17:36:47.493Z,12.70
2023-02-02T17:39:13.809Z,12.40
2023-02-02T17:41:40.242Z,6.03
2023-02-02T17:44:06.898Z,11.07
2023-02-02T17:46:33.392Z,23.10
2023-02-02T17:49:00.101Z,20.50
2023-02-02T17:51:26.345Z,9.20
2023-02-02T17:53:55.358Z,8.77
2023-02-02T17:56:21.974Z,7.93
2023-02-02T17:58:48.233Z,16.55
2023-02-02T18:01:14.549Z,12.27
2023-02-02T18:03:43.473Z,16.73
2023-02-02T18:06:10.382Z,17.35
2023-02-02T18:08:36.732Z,13.63
2023-02-02T18:11:03.071Z,8.88
2023-02-02T18:13:29.362Z,9.80
2023-02-02T18:15:56.078Z,13.98
2023-02-02T18:18:22.958Z,7.50
2023-02-02T18:20:49.988Z,7.97
2023-02-02T18:23:16.822Z,20.35
2023-02-02T18:25:43.158Z,11.77
2023-02-02T18:28:10.326Z,10.02
2023-02-02T18:30:40.340Z,13.95
2023-02-02T18:33:10.288Z,18.35
2023-02-02T18:35:40.629Z,10.05
2023-02-02T18:38:07.001Z,8.68
2023-02-02T18:40:33.271Z,23.35
2023-02-02T18:42:59.555Z,16.80
2023-02-02T18:45:26.146Z,20.70
2023-02-02T18:47:52.534Z,14.90
2023-02-02T18:50:18.877Z,10.93
2023-02-02T18:52:45.158Z,13.05
2023-02-02T18:55:11.406Z,12.95
2023-02-02T18:57:37.741Z,16.23
2023-02-02T19:00:04.633Z,19.05
2023-02-02T19:02:30.934Z,13.75
2023-02-02T19:05:16.011Z,19.50
2023-02-02T19:07:54.339Z,16.90
2023-02-02T19:10:21.656Z,19.77
2023-02-02T19:12:52.536Z,30.88
2023-02-02T19:15:18.793Z,17.13
2023-02-02T19:17:46.634Z,24.35
2023-02-02T19:20:22.741Z,22.83
2023-02-02T19:22:49.361Z,17.10
2023-02-02T19:25:16.178Z,29.58
2023-02-02T19:27:42.523Z,18.60
2023-02-02T19:30:15.529Z,14.63
2023-02-02T19:32:41.872Z,13.88
2023-02-02T19:35:15.329Z,12.32
2023-02-02T19:37:43.194Z,20.30
2023-02-02T19:40:09.488Z,11.95
2023-02-02T19:42:37.075Z,32.15
2023-02-02T19:45:24.291Z,26.67
2023-02-02T19:47:52.077Z,24.13
2023-02-02T19:50:19.494Z,32.75
2023-02-02T19:52:46.730Z,25.45
2023-02-02T19:55:24.226Z,20.58
2023-02-02T19:57:50.900Z,17.92
2023-02-02T20:00:22.695Z,13.02
2023-02-02T20:02:54.301Z,14.40
2023-02-02T20:05:21.823Z,21.00
2023-02-02T20:07:51.862Z,26.75
2023-02-02T20:10:24.580Z,12.00
2023-02-02T20:12:51.600Z,20.50
2023-02-02T20:15:27.484Z,19.30
2023-02-02T20:17:55.912Z,14.43
2023-02-02T20:20:27.241Z,22.27
2023-02-02T20:22:54.491Z,16.23
2023-02-02T20:25:20.915Z,13.57
2023-02-02T20:27:47.225Z,17.70
2023-02-02T20:30:21.677Z,16.13
2023-02-02T20:32:50.493Z,29.45
2023-02-02T20:35:28.927Z,15.75
2023-02-02T20:37:55.695Z,20.30
2023-02-02T20:40:25.716Z,18.25
2023-02-02T20:42:52.182Z,19.83
2023-02-02T20:45:18.492Z,20.75
2023-02-02T20:47:45.321Z,20.63
2023-02-02T20:50:12.109Z,29.80
2023-02-02T20:52:38.377Z,26.48
2023-02-02T20:55:04.844Z,19.13
2023-02-02T20:57:32.561Z,28.42
2023-02-02T20:59:59.646Z,19.02
2023-02-02T21:02:26.944Z,20.13
2023-02-02T21:04:53.405Z,13.55
2023-02-02T21:07:20.830Z,20.13
2023-02-02T21:09:48.302Z,9.52
2023-02-02T21:12:14.834Z,19.27
2023-02-02T21:14:41.332Z,8.98
2023-02-02T21:17:14.792Z,10.10
2023-02-02T21:19:41.756Z,11.85
2023-02-02T21:22:08.077Z,12.82
2023-02-02T21:24:34.349Z,14.00
2023-02-02T21:27:01.979Z,22.10
2023-02-02T21:29:31.137Z,10.55
2023-02-02T21:31:59.417Z,9.82
2023-02-02T21:34:26.044Z,13.27
2023-02-02T21:36:53.709Z,17.45
2023-02-02T21:39:23.218Z,13.02
2023-02-02T21:41:50.274Z,9.73
2023-02-02T21:44:18.089Z,10.63
2023-02-02T21:46:45.137Z,11.27
2023-02-02T21:49:28.005Z,11.20
2023-02-02T21:51:55.334Z,13.35
2023-02-02T21:54:24.285Z,13.52
2023-02-02T21:56:51.769Z,13.10
2023-02-02T21:59:21.782Z,9.48
2023-02-02T22:01:49.208Z,16.15
2023-02-02T22:04:20.311Z,18.60
2023-02-02T22:06:47.797Z,14.10
2023-02-02T22:09:14.109Z,14.77
2023-02-02T22:11:47.559Z,10.23
2023-02-02T22:14:21.347Z,37.88
2023-02-02T22:16:50.199Z,21.48
2023-02-02T22:19:28.279Z,16.77
2023-02-02T22:22:15.006Z,16.58
2023-02-02T22:24:41.969Z,15.52
2023-02-02T22:27:37.677Z,18.17
2023-02-02T22:30:13.781Z,10.00
2023-02-02T22:32:40.045Z,10.50
2023-02-02T22:35:06.688Z,11.55
2023-02-02T22:37:32.958Z,9.63
2023-02-02T22:40:00.676Z,8.63
2023-02-02T22:42:27.216Z,13.65
2023-02-02T22:44:53.556Z,11.30
2023-02-02T22:47:19.854Z,10.45
2023-02-02T22:49:46.085Z,8.85
2023-02-02T22:52:12.328Z,13.23
2023-02-02T22:54:38.691Z,7.93
2023-02-02T22:57:04.959Z,18.13
2023-02-02T22:59:31.243Z,13.60
2023-02-02T23:01:57.482Z,11.52
2023-02-02T23:04:23.787Z,7.13
2023-02-02T23:06:50.058Z,5.32
2023-02-02T23:09:16.343Z,3.88
2023-02-02T23:11:42.608Z,7.00
2023-02-02T23:14:08.892Z,8.02
2023-02-02T23:16:35.163Z,4.05
2023-02-02T23:19:01.444Z,10.00
2023-02-02T23:21:27.700Z,8.68
2023-02-02T23:23:55.731Z,6.82
2023-02-02T23:26:22.572Z,6.20
2023-02-02T23:28:48.854Z,7.65
2023-02-02T23:31:15.306Z,9.05
2023-02-02T23:33:41.635Z,6.45
2023-02-02T23:36:08.067Z,7.35
2023-02-02T23:38:34.355Z,7.15
2023-02-02T23:41:00.722Z,10.85
2023-02-02T23:43:27.263Z,8.75
2023-02-02T23:45:54.001Z,6.05
2023-02-02T23:48:20.720Z,6.07
2023-02-02T23:50:47.243Z,11.43
2023-02-02T23:53:14.592Z,7.88
2023-02-02T23:55:42.147Z,9.55
2023-02-02T23:58:09.031Z,7.50
